createdAt,value
2023-04-18T00:00:26.197Z,2.72
2023-04-18T00:03:29.996Z,3.00
2023-04-18T00:06:32.442Z,3.28
2023-04-18T00:09:34.078Z,3.22
2023-04-18T00:12:36.360Z,3.03
2023-04-18T00:15:38.023Z,3.03
2023-04-18T00:18:40.177Z,3.15
2023-04-18T00:21:46.941Z,3.08
2023-04-18T00:24:49.933Z,3.40
2023-04-18T00:28:05.264Z,3.60
2023-04-18T00:31:15.270Z,3.40
2023-04-18T00:34:16.931Z,3.40
2023-04-18T00:37:20.225Z,3.65
2023-04-18T00:40:26.950Z,4.00
2023-04-18T00:43:29.094Z,3.20
2023-04-18T00:46:33.881Z,3.60
2023-04-18T00:49:35.628Z,3.47
2023-04-18T00:52:40.780Z,3.97
2023-04-18T00:55:43.105Z,3.75
2023-04-18T00:58:46.913Z,4.32
2023-04-18T01:01:48.707Z,4.13
2023-04-18T01:04:50.496Z,4.28
2023-04-18T01:11:16.534Z,4.40
2023-04-18T01:14:20.503Z,3.92
2023-04-18T01:17:28.422Z,3.83
2023-04-18T01:20:31.170Z,3.95
2023-04-18T01:23:34.165Z,4.30
2023-04-18T01:26:39.401Z,4.00
2023-04-18T01:29:50.290Z,4.10
2023-04-18T01:32:52.049Z,4.70
2023-04-18T01:35:53.647Z,4.90
2023-04-18T01:38:56.440Z,4.25
2023-04-18T01:42:02.234Z,4.80
2023-04-18T01:45:08.288Z,3.95
2023-04-18T01:48:16.088Z,3.95
2023-04-18T01:51:17.700Z,4.88
2023-04-18T01:54:19.409Z,4.22
2023-04-18T01:57:21.078Z,4.45
2023-04-18T02:00:27.225Z,4.35
2023-04-18T02:03:28.952Z,4.28
2023-04-18T02:06:39.784Z,4.88
2023-04-18T02:09:41.386Z,4.65
2023-04-18T02:12:45.960Z,4.10
2023-04-18T02:15:47.612Z,4.55
2023-04-18T02:18:52.758Z,4.07
2023-04-18T02:21:54.526Z,4.22
2023-04-18T02:24:56.200Z,4.22
2023-04-18T02:27:59.337Z,4.22
2023-04-18T02:31:06.016Z,3.75
2023-04-18T02:34:09.161Z,4.05
2023-04-18T02:37:11.384Z,4.28
2023-04-18T02:40:15.273Z,4.05
2023-04-18T02:43:21.949Z,4.55
2023-04-18T02:49:25.627Z,3.75
2023-04-18T02:52:29.284Z,4.35
2023-04-18T02:55:37.374Z,4.10
2023-04-18T02:58:41.330Z,4.40
2023-04-18T03:02:01.234Z,4.68
2023-04-18T03:05:05.598Z,4.78
2023-04-18T03:08:08.390Z,5.13
2023-04-18T03:11:13.229Z,4.90
2023-04-18T03:21:01.462Z,4.85
2023-04-18T03:24:08.134Z,4.95
2023-04-18T03:27:11.510Z,5.55
2023-04-18T03:30:16.001Z,5.70
2023-04-18T03:33:31.384Z,5.93
2023-04-18T03:36:46.553Z,6.40
2023-04-18T03:39:52.460Z,6.45
2023-04-18T03:42:57.728Z,7.00
2023-04-18T03:46:01.744Z,6.25
2023-04-18T03:49:11.807Z,7.75
2023-04-18T03:52:21.406Z,7.47
2023-04-18T03:55:22.974Z,7.03
2023-04-18T03:58:25.352Z,6.38
2023-04-18T04:01:38.981Z,6.95
2023-04-18T04:07:57.107Z,7.70
2023-04-18T04:10:59.580Z,7.45
2023-04-18T04:14:10.984Z,7.30
2023-04-18T04:17:17.706Z,7.60
2023-04-18T04:20:24.152Z,6.50
2023-04-18T04:23:35.368Z,6.82
2023-04-18T04:30:04.236Z,6.15
2023-04-18T04:33:09.806Z,5.10
2023-04-18T04:36:18.612Z,6.07
2023-04-18T04:39:22.132Z,5.97
2023-04-18T04:42:47.257Z,6.38
2023-04-18T04:45:57.624Z,7.22
2023-04-18T04:49:05.304Z,6.40
2023-04-18T04:52:07.400Z,6.85
2023-04-18T04:55:12.283Z,7.32
2023-04-18T04:58:15.970Z,7.18
2023-04-18T05:01:39.357Z,6.78
2023-04-18T05:04:42.653Z,7.07
2023-04-18T05:07:53.201Z,8.63
2023-04-18T05:10:55.718Z,8.45
2023-04-18T05:13:59.385Z,8.07
2023-04-18T05:17:01.100Z,7.80
2023-04-18T05:20:11.997Z,7.85
2023-04-18T05:23:16.270Z,7.90
2023-04-18T05:26:18.747Z,7.65
2023-04-18T05:29:20.404Z,6.93
2023-04-18T05:32:22.106Z,7.70
2023-04-18T05:35:24.361Z,8.00
2023-04-18T05:38:32.102Z,7.32
2023-04-18T05:41:40.812Z,8.40
2023-04-18T05:44:42.520Z,8.13
2023-04-18T05:47:44.261Z,8.45
2023-04-18T05:50:52.012Z,7.50
2023-04-18T05:53:53.555Z,7.15
2023-04-18T05:56:55.227Z,8.38
2023-04-18T06:00:04.132Z,8.02
2023-04-18T06:03:17.386Z,7.13
2023-04-18T06:06:19.147Z,6.55
2023-04-18T06:09:20.759Z,7.88
2023-04-18T06:12:24.692Z,9.43
2023-04-18T06:15:35.694Z,9.35
2023-04-18T06:18:37.551Z,8.10
2023-04-18T06:21:47.467Z,10.50
2023-04-18T06:24:50.998Z,16.70
2023-04-18T06:27:57.640Z,30.17
2023-04-18T06:34:03.731Z,15.50
2023-04-18T06:37:05.859Z,12.88
2023-04-18T06:40:26.950Z,9.95
2023-04-18T06:43:29.543Z,9.70
2023-04-18T06:46:31.845Z,13.45
2023-04-18T06:49:33.416Z,10.80
2023-04-18T06:55:54.553Z,8.82
2023-04-18T06:59:07.156Z,7.65
2023-04-18T07:02:08.776Z,10.18
2023-04-18T07:05:10.799Z,8.70
2023-04-18T07:08:14.735Z,9.93
2023-04-18T07:11:18.525Z,9.10
2023-04-18T07:14:40.819Z,10.25
2023-04-18T07:17:48.663Z,10.00
2023-04-18T07:20:50.445Z,9.23
2023-04-18T07:23:52.074Z,8.73
2023-04-18T07:26:57.577Z,10.30
2023-04-18T07:30:03.128Z,8.85
2023-04-18T07:33:04.712Z,9.90
2023-04-18T07:36:09.073Z,12.38
2023-04-18T07:39:10.709Z,9.55
2023-04-18T07:45:30.251Z,10.15
2023-04-18T07:48:34.837Z,11.95
2023-04-18T07:51:36.418Z,9.45
2023-04-18T07:54:44.324Z,10.52
2023-04-18T07:57:50.564Z,10.63
2023-04-18T08:00:55.400Z,11.23
2023-04-18T08:04:01.471Z,9.70
2023-04-18T08:07:03.486Z,9.45
2023-04-18T08:10:12.624Z,9.10
2023-04-18T08:13:16.259Z,8.63
2023-04-18T08:16:17.956Z,9.15
2023-04-18T08:19:23.736Z,9.70
2023-04-18T08:22:28.645Z,10.83
2023-04-18T08:25:31.685Z,9.25
2023-04-18T08:28:34.657Z,8.82
2023-04-18T08:31:39.888Z,8.07
2023-04-18T08:34:44.315Z,8.35
2023-04-18T08:37:45.895Z,8.20
2023-04-18T08:40:47.977Z,8.02
2023-04-18T08:43:52.394Z,8.35
2023-04-18T08:46:55.905Z,7.93
2023-04-18T08:50:01.723Z,8.48
2023-04-18T08:53:03.353Z,8.50
2023-04-18T08:56:12.722Z,8.80
2023-04-18T08:59:17.161Z,8.20
2023-04-18T09:02:23.317Z,8.00
2023-04-18T09:05:26.906Z,9.10
2023-04-18T09:08:35.373Z,8.00
2023-04-18T09:11:42.531Z,8.07
2023-04-18T09:14:47.083Z,7.82
2023-04-18T09:17:54.311Z,8.25
2023-04-18T09:20:56.967Z,8.50
2023-04-18T09:24:15.468Z,7.97
2023-04-18T09:27:17.067Z,8.43
2023-04-18T09:30:32.936Z,8.18
2023-04-18T09:34:00.906Z,8.65
2023-04-18T09:37:44.174Z,8.27
2023-04-18T09:41:21.558Z,7.50
2023-04-18T09:44:25.571Z,8.02
2023-04-18T09:47:28.244Z,8.27
2023-04-18T09:50:32.913Z,11.88
2023-04-18T09:53:55.039Z,9.07
2023-04-18T09:57:01.050Z,8.93
2023-04-18T10:00:14.408Z,8.90
2023-04-18T10:03:19.505Z,8.98
2023-04-18T10:06:34.926Z,8.88
2023-04-18T10:09:37.645Z,8.07
2023-04-18T10:12:43.315Z,8.60
2023-04-18T10:15:54.570Z,7.85
2023-04-18T10:18:56.554Z,7.70
2023-04-18T10:22:01.537Z,8.05
2023-04-18T10:25:06.812Z,9.20
2023-04-18T10:28:10.925Z,8.57
2023-04-18T10:31:12.546Z,8.20
2023-04-18T10:34:18.140Z,8.48
2023-04-18T10:37:35.415Z,8.40
2023-04-18T10:40:38.765Z,7.97
2023-04-18T10:44:19.687Z,8.45
2023-04-18T10:47:22.349Z,7.60
2023-04-18T10:50:23.970Z,7.30
2023-04-18T10:53:27.957Z,8.90
2023-04-18T10:56:29.721Z,7.82
2023-04-18T10:59:33.069Z,7.72
2023-04-18T11:02:39.156Z,7.70
2023-04-18T11:09:13.419Z,7.13
2023-04-18T11:12:15.776Z,7.25
2023-04-18T11:15:23.259Z,7.55
2023-04-18T11:18:24.997Z,7.57
2023-04-18T11:21:32.389Z,6.78
2023-04-18T11:24:36.613Z,7.03
2023-04-18T11:27:47.885Z,7.30
2023-04-18T11:30:51.610Z,8.05
2023-04-18T11:33:56.600Z,8.30
2023-04-18T11:37:01.810Z,8.00
2023-04-18T11:40:10.439Z,7.82
2023-04-18T11:43:23.129Z,7.53
2023-04-18T11:46:37.861Z,7.47
2023-04-18T11:49:39.579Z,7.28
2023-04-18T11:52:42.613Z,7.60
2023-04-18T11:55:55.084Z,7.95
2023-04-18T12:02:17.547Z,6.90
2023-04-18T12:05:31.172Z,7.50
2023-04-18T12:08:33.000Z,6.90
2023-04-18T12:15:19.982Z,7.13
2023-04-18T12:18:27.677Z,7.28
2023-04-18T12:21:30.236Z,7.75
2023-04-18T12:24:41.717Z,7.30
2023-04-18T12:28:02.646Z,6.63
2023-04-18T12:31:07.697Z,6.93
2023-04-18T12:34:17.088Z,6.63
2023-04-18T12:37:18.917Z,7.38
2023-04-18T12:40:22.908Z,7.40
2023-04-18T12:43:29.307Z,6.80
2023-04-18T12:46:33.534Z,6.93
2023-04-18T12:49:41.344Z,7.20
2023-04-18T12:52:42.925Z,7.00
2023-04-18T12:55:51.000Z,6.35
2023-04-18T12:58:53.905Z,7.03
2023-04-18T13:02:07.704Z,6.15
2023-04-18T13:05:20.318Z,6.63
2023-04-18T13:08:23.206Z,6.72
2023-04-18T13:11:30.860Z,7.25
2023-04-18T13:14:34.504Z,7.10
2023-04-18T13:17:37.292Z,7.88
2023-04-18T13:20:42.077Z,6.40
2023-04-18T13:27:04.429Z,6.10
2023-04-18T13:30:07.466Z,6.15
2023-04-18T13:33:10.310Z,5.80
2023-04-18T13:36:19.384Z,5.88
2023-04-18T13:39:21.488Z,7.72
2023-04-18T13:42:23.037Z,6.22
2023-04-18T13:45:41.327Z,6.18
2023-04-18T13:48:42.845Z,5.63
2023-04-18T13:51:44.699Z,5.55
2023-04-18T13:58:01.724Z,5.13
2023-04-18T14:01:03.329Z,4.70
2023-04-18T14:04:05.123Z,4.80
2023-04-18T14:07:07.948Z,4.75
2023-04-18T14:10:18.643Z,4.45
2023-04-18T14:13:20.411Z,4.55
2023-04-18T14:16:33.387Z,4.35
2023-04-18T14:22:52.910Z,4.75
2023-04-18T14:25:55.175Z,4.13
2023-04-18T14:29:05.720Z,4.13
2023-04-18T14:32:33.736Z,4.28
2023-04-18T14:35:35.480Z,4.15
2023-04-18T14:38:37.236Z,4.25
2023-04-18T14:41:45.781Z,4.13
2023-04-18T14:44:47.317Z,4.18
2023-04-18T14:47:52.158Z,3.75
2023-04-18T14:51:00.304Z,3.70
2023-04-18T14:54:01.904Z,3.50
2023-04-18T14:57:03.642Z,3.85
2023-04-18T15:00:12.718Z,3.63
2023-04-18T15:03:19.333Z,4.00
2023-04-18T15:06:21.030Z,4.00
2023-04-18T15:09:22.696Z,3.95
2023-04-18T15:12:35.786Z,4.35
2023-04-18T15:15:41.663Z,3.80
2023-04-18T15:18:53.581Z,3.67
2023-04-18T15:22:02.537Z,3.53
2023-04-18T15:25:06.696Z,3.40
2023-04-18T15:28:08.466Z,3.42
2023-04-18T15:31:09.992Z,3.42
2023-04-18T15:34:13.601Z,3.92
2023-04-18T15:37:21.678Z,3.60
2023-04-18T15:40:29.801Z,3.53
2023-04-18T15:43:49.180Z,3.70
2023-04-18T15:46:50.962Z,3.13
2023-04-18T15:49:56.433Z,3.72
2023-04-18T15:52:58.016Z,3.50
2023-04-18T15:56:03.429Z,3.00
2023-04-18T15:59:13.384Z,6.55
2023-04-18T16:02:15.099Z,4.53
2023-04-18T16:05:17.418Z,4.10
2023-04-18T16:08:26.545Z,4.57
2023-04-18T16:11:34.439Z,4.97
2023-04-18T16:14:36.025Z,3.38
2023-04-18T16:17:43.610Z,4.60
2023-04-18T16:20:45.311Z,3.30
2023-04-18T16:24:01.842Z,3.53
2023-04-18T16:30:05.849Z,2.92
2023-04-18T16:33:07.479Z,2.90
2023-04-18T16:36:11.885Z,2.95
2023-04-18T16:39:41.506Z,3.25
2023-04-18T16:42:43.124Z,2.70
2023-04-18T16:45:44.694Z,2.70
2023-04-18T16:48:46.283Z,2.83
2023-04-18T16:51:48.946Z,3.15
2023-04-18T16:54:53.227Z,3.15
2023-04-18T16:57:55.005Z,2.88
2023-04-18T17:00:56.820Z,3.22
2023-04-18T17:03:59.504Z,3.47
2023-04-18T17:07:01.258Z,2.97
2023-04-18T17:10:03.662Z,3.22
2023-04-18T17:13:08.212Z,3.30
2023-04-18T17:16:09.847Z,3.65
2023-04-18T17:19:11.490Z,2.83
2023-04-18T17:22:13.182Z,2.95
2023-04-18T17:25:21.538Z,3.90
2023-04-18T17:28:23.711Z,2.92
2023-04-18T17:31:25.357Z,3.03
2023-04-18T17:34:30.962Z,2.75
2023-04-18T17:37:32.622Z,2.92
2023-04-18T17:40:35.328Z,2.80
2023-04-18T17:43:46.605Z,3.10
2023-04-18T17:46:51.279Z,3.05
2023-04-18T17:49:56.024Z,3.13
2023-04-18T17:52:59.382Z,2.80
2023-04-18T17:56:07.057Z,2.85
2023-04-18T17:59:11.961Z,3.15
2023-04-18T18:02:20.061Z,3.13
2023-04-18T18:05:21.919Z,2.88
2023-04-18T18:08:28.721Z,3.42
2023-04-18T18:11:30.513Z,4.00
2023-04-18T18:15:07.032Z,3.30
2023-04-18T18:18:11.085Z,3.15
2023-04-18T18:21:12.939Z,3.25
2023-04-18T18:24:14.543Z,3.65
2023-04-18T18:27:20.140Z,3.47
2023-04-18T18:30:21.701Z,3.63
2023-04-18T18:33:23.483Z,3.42
2023-04-18T18:36:25.398Z,3.08
2023-04-18T18:39:28.469Z,3.30
2023-04-18T18:46:00.837Z,3.10
2023-04-18T18:49:04.501Z,3.00
2023-04-18T18:52:06.172Z,3.25
2023-04-18T18:55:15.306Z,6.32
2023-04-18T18:58:17.915Z,3.53
2023-04-18T19:01:19.582Z,3.20
2023-04-18T19:04:21.635Z,2.90
2023-04-18T19:07:23.692Z,3.20
2023-04-18T19:10:34.521Z,4.32
2023-04-18T19:13:36.048Z,3.40
2023-04-18T19:16:37.897Z,3.28
2023-04-18T19:19:46.768Z,2.97
2023-04-18T19:22:48.290Z,3.08
2023-04-18T19:25:49.806Z,2.92
2023-04-18T19:29:01.815Z,3.58
2023-04-18T19:32:03.734Z,3.10
2023-04-18T19:35:09.837Z,3.05
2023-04-18T19:38:13.895Z,3.30
2023-04-18T19:41:15.408Z,3.38
2023-04-18T19:44:17.073Z,4.28
2023-04-18T19:47:21.833Z,4.00
2023-04-18T19:50:23.356Z,3.88
2023-04-18T19:53:28.240Z,3.60
2023-04-18T19:56:33.643Z,3.90
2023-04-18T20:02:58.755Z,3.60
2023-04-18T20:06:01.341Z,3.63
2023-04-18T20:09:03.612Z,3.70
2023-04-18T20:12:15.586Z,3.90
2023-04-18T20:15:42.464Z,3.97
2023-04-18T20:18:47.522Z,4.55
2023-04-18T20:21:49.540Z,4.25
2023-04-18T20:24:51.174Z,3.83
2023-04-18T20:27:52.771Z,3.53
2023-04-18T20:30:57.407Z,3.78
2023-04-18T20:33:59.073Z,3.60
2023-04-18T20:37:22.684Z,3.97
2023-04-18T20:40:26.170Z,4.07
2023-04-18T20:43:38.229Z,4.40
2023-04-18T20:46:43.610Z,3.75
2023-04-18T20:49:51.022Z,4.20
2023-04-18T20:52:52.551Z,4.20
2023-04-18T20:55:54.288Z,3.42
2023-04-18T20:58:55.994Z,3.83
2023-04-18T21:02:00.879Z,3.78
2023-04-18T21:05:02.805Z,3.80
2023-04-18T21:08:22.951Z,3.75
2023-04-18T21:11:24.504Z,3.67
2023-04-18T21:14:26.027Z,4.28
2023-04-18T21:17:27.643Z,4.50
2023-04-18T21:20:34.204Z,4.25
2023-04-18T21:26:51.589Z,3.90
2023-04-18T21:30:02.355Z,4.68
2023-04-18T21:33:08.784Z,4.15
2023-04-18T21:36:10.933Z,4.15
2023-04-18T21:39:17.620Z,4.25
2023-04-18T21:42:19.154Z,3.97
2023-04-18T21:45:23.726Z,4.05
2023-04-18T21:48:25.281Z,4.13
2023-04-18T21:54:49.628Z,4.75
2023-04-18T21:57:57.198Z,4.45
2023-04-18T22:01:01.020Z,4.05
2023-04-18T22:04:02.951Z,5.20
2023-04-18T22:07:04.852Z,4.75
2023-04-18T22:10:08.076Z,4.47
2023-04-18T22:13:17.436Z,4.53
2023-04-18T22:16:28.885Z,5.07
2023-04-18T22:19:31.336Z,4.28
2023-04-18T22:22:44.439Z,4.82
2023-04-18T22:25:48.504Z,5.20
2023-04-18T22:28:50.002Z,4.55
2023-04-18T22:31:51.688Z,4.50
2023-04-18T22:35:06.608Z,4.65
2023-04-18T22:38:10.619Z,4.28
2023-04-18T22:41:15.394Z,3.83
2023-04-18T22:44:20.055Z,4.28
2023-04-18T22:47:24.825Z,4.18
2023-04-18T22:53:51.666Z,4.53
2023-04-18T22:56:54.740Z,4.43
2023-04-18T22:59:56.651Z,4.80
2023-04-18T23:03:02.241Z,4.57
2023-04-18T23:06:06.487Z,4.75
2023-04-18T23:09:09.923Z,4.60
2023-04-18T23:12:17.640Z,4.45
2023-04-18T23:15:21.840Z,4.53
2023-04-18T23:18:23.326Z,4.53
2023-04-18T23:21:29.988Z,4.00
2023-04-18T23:24:33.724Z,4.63
2023-04-18T23:27:35.853Z,4.28
2023-04-18T23:30:43.589Z,4.55
2023-04-18T23:33:46.774Z,4.55
2023-04-18T23:36:55.720Z,4.03
2023-04-18T23:39:59.141Z,4.43
2023-04-18T23:43:01.883Z,4.72
2023-04-18T23:46:03.542Z,4.40
2023-04-18T23:49:05.114Z,4.90
2023-04-18T23:52:09.621Z,4.60
2023-04-18T23:55:14.280Z,5.10
2023-04-18T23:58:15.886Z,4.72
